Time;durP1;ratioP1;P1;durP2;ratioP2;P2;SDS_P1;SDS_P2;PMS_P1;PMS_P2;Temp;Humidity;BMP_temperature;BMP_pressure;BME280_temperature;BME280_humidity;BME280_pressure;Samples;Min_cycle;Max_cycle;Signal;HPM_P1;HPM_P2
2023/02/13 00:02:25;;;;;;;27.75;12.57;;;;;;;1.26;100.00;98183.97;5054089;28;20045;-73
2023/02/13 00:04:51;;;;;;;24.35;11.70;;;;;;;1.29;100.00;98178.16;5055585;28;20056;-72
2023/02/13 00:07:18;;;;;;;24.92;11.85;;;;;;;1.27;100.00;98184.81;5055254;28;20045;-74
2023/02/13 00:09:46;;;;;;;29.42;13.13;;;;;;;1.20;100.00;98184.00;5060295;28;20037;-73
2023/02/13 00:12:12;;;;;;;30.23;13.07;;;;;;;1.20;100.00;98173.25;5061031;28;20051;-73
2023/02/13 00:14:39;;;;;;;25.58;13.18;;;;;;;1.28;100.00;98179.22;5061057;28;20106;-72
2023/02/13 00:17:06;;;;;;;27.27;13.48;;;;;;;1.30;100.00;98179.00;5060847;28;20052;-73
2023/02/13 00:19:33;;;;;;;32.78;13.75;;;;;;;1.32;100.00;98176.13;5059629;28;20501;-72
2023/02/13 00:22:00;;;;;;;25.52;12.23;;;;;;;1.21;100.00;98170.38;5059038;28;20052;-72
2023/02/13 00:24:26;;;;;;;24.92;12.57;;;;;;;1.22;100.00;98165.84;5057305;28;20047;-72
2023/02/13 00:26:54;;;;;;;25.67;12.60;;;;;;;1.22;100.00;98161.28;5054146;28;20049;-73
2023/02/13 00:29:21;;;;;;;27.35;12.77;;;;;;;1.09;100.00;98161.34;5051913;28;20045;-73
2023/02/13 00:31:47;;;;;;;23.88;11.80;;;;;;;1.16;100.00;98155.97;5059008;28;20049;-74
2023/02/13 00:34:14;;;;;;;24.45;12.23;;;;;;;1.12;100.00;98160.09;5058512;28;20044;-74
2023/02/13 00:36:40;;;;;;;23.92;11.48;;;;;;;1.06;100.00;98155.59;5060443;28;20056;-74
2023/02/13 00:39:07;;;;;;;25.23;12.13;;;;;;;1.08;100.00;98158.88;5058213;28;20041;-74
2023/02/13 00:41:33;;;;;;;24.73;12.38;;;;;;;1.09;100.00;98158.66;5058692;28;20041;-72
2023/02/13 00:44:01;;;;;;;24.88;12.07;;;;;;;1.02;100.00;98155.19;5056075;28;20041;-72
2023/02/13 00:46:27;;;;;;;24.92;12.23;;;;;;;1.03;100.00;98156.81;5051924;28;20506;-72
2023/02/13 00:48:54;;;;;;;23.60;11.90;;;;;;;1.02;100.00;98160.56;5051580;28;20052;-72
2023/02/13 00:51:20;;;;;;;24.08;12.35;;;;;;;1.06;100.00;98151.03;5051524;28;20052;-72
2023/02/13 00:53:47;;;;;;;35.25;13.05;;;;;;;0.96;100.00;98156.03;5051593;28;20048;-72
2023/02/13 00:56:13;;;;;;;30.23;13.23;;;;;;;0.94;100.00;98158.94;5053586;28;20041;-73
2023/02/13 00:58:40;;;;;;;26.58;12.88;;;;;;;0.96;100.00;98150.69;5052348;28;20492;-72
2023/02/13 01:01:08;;;;;;;27.05;13.77;;;;;;;0.97;100.00;98158.50;5051212;28;20658;-73
2023/02/13 01:03:34;;;;;;;31.30;12.82;;;;;;;1.01;100.00;98153.53;5051905;28;20045;-73
2023/02/13 01:06:01;;;;;;;26.40;12.70;;;;;;;1.06;100.00;98152.91;5052011;28;20080;-72
2023/02/13 01:08:28;;;;;;;27.77;12.95;;;;;;;1.05;100.00;98157.47;5051278;28;20048;-73
2023/02/13 01:10:55;;;;;;;27.50;13.90;;;;;;;1.03;100.00;98149.59;5051490;28;20036;-72
2023/02/13 01:13:21;;;;;;;24.95;12.13;;;;;;;1.04;100.00;98153.94;5053117;28;20056;-72
2023/02/13 01:15:48;;;;;;;27.25;13.15;;;;;;;1.01;100.00;98153.53;5052828;28;20044;-72
2023/02/13 01:18:18;;;;;;;25.27;13.15;;;;;;;1.00;100.00;98158.09;5057236;28;20041;-73
2023/02/13 01:20:46;;;;;;;25.42;12.85;;;;;;;1.01;100.00;98148.19;5057010;28;20048;-72
2023/02/13 01:23:12;;;;;;;26.48;13.43;;;;;;;0.99;100.00;98155.59;5056413;28;20408;-73
2023/02/13 01:25:40;;;;;;;28.42;13.32;;;;;;;1.01;100.00;98150.88;5057173;28;20052;-72
2023/02/13 01:28:07;;;;;;;22.90;12.25;;;;;;;1.02;100.00;98152.50;5051304;28;20077;-72
2023/02/13 01:30:34;;;;;;;25.50;12.85;;;;;;;1.06;100.00;98137.63;5051338;28;20044;-72
2023/02/13 01:33:00;;;;;;;25.83;13.38;;;;;;;1.09;100.00;98139.88;5051114;28;20053;-72
2023/02/13 01:35:28;;;;;;;39.20;14.18;;;;;;;1.13;100.00;98143.78;5050950;28;20048;-72
2023/02/13 01:37:55;;;;;;;36.53;13.85;;;;;;;1.11;100.00;98147.72;5051291;28;20049;-72
2023/02/13 01:40:21;;;;;;;25.90;13.63;;;;;;;1.10;100.00;98146.91;5050713;28;20045;-72
2023/02/13 01:42:48;;;;;;;24.48;13.18;;;;;;;1.05;100.00;98154.78;5050930;28;20044;-72
2023/02/13 01:45:24;;;;;;;33.38;14.00;;;;;;;1.08;100.00;98154.31;5051695;28;20052;-72
2023/02/13 01:47:54;;;;;;;27.35;13.90;;;;;;;0.93;100.00;98149.22;5052859;28;20048;-72
2023/02/13 01:50:25;;;;;;;29.30;14.23;;;;;;;0.97;100.00;98147.78;5052156;28;20048;-72
2023/02/13 01:52:57;;;;;;;22.77;11.90;;;;;;;0.94;100.00;98142.84;5052216;28;20045;-73
2023/02/13 01:55:25;;;;;;;39.50;12.90;;;;;;;0.93;100.00;98151.91;5051442;28;20051;-72
2023/02/13 01:57:57;;;;;;;24.88;13.40;;;;;;;0.94;100.00;98142.00;5051873;28;20048;-73
2023/02/13 02:00:24;;;;;;;22.55;11.50;;;;;;;0.92;100.00;98154.81;5051329;28;20053;-73
2023/02/13 02:02:55;;;;;;;23.90;11.68;;;;;;;0.96;100.00;98145.31;5059312;28;20041;-72
2023/02/13 02:05:26;;;;;;;23.42;12.18;;;;;;;1.00;100.00;98146.53;5040506;28;20108;-72
2023/02/13 02:07:56;;;;;;;29.75;12.70;;;;;;;0.90;100.00;98154.22;5056100;28;20049;-72
2023/02/13 02:10:22;;;;;;;27.90;12.60;;;;;;;0.90;100.00;98149.66;5056675;28;20052;-72
2023/02/13 02:12:55;;;;;;;24.50;12.32;;;;;;;0.93;100.00;98145.72;5058571;28;20052;-72
2023/02/13 02:15:22;;;;;;;28.00;13.40;;;;;;;0.72;100.00;98152.19;5057655;28;20049;-72
2023/02/13 02:17:48;;;;;;;44.15;14.38;;;;;;;0.75;100.00;98143.75;5057192;28;20044;-72
2023/02/13 02:20:27;;;;;;;28.38;13.05;;;;;;;0.73;100.00;98146.63;5058359;28;20052;-73
2023/02/13 02:23:40;;;;;;;27.23;12.43;;;;;;;0.73;100.00;98151.16;5040223;28;20048;-72
2023/02/13 02:26:38;;;;;;;32.45;13.15;;;;;;;0.72;100.00;98155.69;4968093;28;20089;-72
2023/02/13 02:29:24;;;;;;;20.17;11.05;;;;;;;0.62;100.00;98151.81;5031048;28;20045;-73
2023/02/13 02:32:09;;;;;;;26.45;12.70;;;;;;;0.57;100.00;98151.63;5030259;28;20041;-71
2023/02/13 02:34:46;;;;;;;23.50;11.45;;;;;;;0.64;100.00;98141.72;5034411;28;20049;-72
2023/02/13 02:37:25;;;;;;;21.27;12.02;;;;;;;0.69;100.00;98148.09;5042147;28;20129;-72
2023/02/13 02:40:05;;;;;;;23.35;11.80;;;;;;;0.72;100.00;98144.97;5049881;28;20037;-72
2023/02/13 02:42:39;;;;;;;23.60;12.77;;;;;;;0.65;100.00;98149.53;5049842;28;20662;-72
2023/02/13 02:45:15;;;;;;;23.92;11.70;;;;;;;0.69;100.00;98145.41;5049071;28;20699;-72
2023/02/13 02:50:43;;;;;;;47.65;12.15;;;;;;;0.63;100.00;98150.78;5049807;28;20043;-71
2023/02/13 02:53:27;;;;;;;55.08;12.77;;;;;;;0.58;100.00;98154.09;5049203;28;20500;-72
2023/02/13 02:56:00;;;;;;;23.95;10.38;;;;;;;0.60;100.00;98149.34;5049748;28;20067;-71
2023/02/13 03:07:06;;;;;;;22.48;11.38;;;;;;;0.44;100.00;98152.47;5050072;28;20100;-72
2023/02/13 03:15:20;;;;;;;25.73;11.57;;;;;;;0.44;100.00;98152.47;5049670;28;20090;-72
2023/02/13 03:23:43;;;;;;;25.42;12.20;;;;;;;0.42;100.00;98146.50;5053362;28;20409;-72
2023/02/13 03:26:32;;;;;;;19.23;9.23;;;;;;;0.45;100.00;98148.75;5052965;28;20052;-72
2023/02/13 03:32:00;;;;;;;22.48;10.85;;;;;;;0.51;100.00;98147.91;5053344;28;20142;-72
2023/02/13 03:37:53;;;;;;;20.67;11.68;;;;;;;0.50;100.00;98151.63;5053050;28;20511;-72
2023/02/13 03:40:16;;;;;;;23.70;11.85;;;;;;;0.49;100.00;98155.34;5052640;28;20048;-72
2023/02/13 03:42:48;;;;;;;20.97;11.27;;;;;;;0.44;100.00;98158.66;5053880;28;20540;-72
2023/02/13 03:50:04;;;;;;;28.27;13.02;;;;;;;0.28;100.00;98152.91;5053486;28;20048;-71
2023/02/13 03:50:58;;;;;;;31.48;13.68;;;;;;;0.36;100.00;98158.03;5053410;28;20068;-72
2023/02/13 03:53:28;;;;;;;23.23;11.88;;;;;;;0.42;100.00;98155.38;5052934;28;20049;-72
2023/02/13 04:01:34;;;;;;;23.50;11.63;;;;;;;0.31;100.00;98157.84;5052600;28;20516;-72
2023/02/13 04:04:09;;;;;;;22.67;11.43;;;;;;;0.34;100.00;98157.44;5052676;28;20529;-72
2023/02/13 04:06:40;;;;;;;26.23;12.63;;;;;;;0.33;100.00;98155.81;5052761;28;20056;-72
2023/02/13 04:09:08;;;;;;;31.88;12.73;;;;;;;0.33;100.00;98151.25;5053969;28;20048;-72
2023/02/13 04:11:39;;;;;;;25.17;12.32;;;;;;;0.34;100.00;98154.75;5053692;28;20037;-72
2023/02/13 04:14:13;;;;;;;25.48;11.60;;;;;;;0.32;100.00;98149.63;5052549;28;20056;-72
2023/02/13 04:16:43;;;;;;;24.13;12.07;;;;;;;0.35;100.00;98149.19;5052932;28;20041;-71
2023/02/13 04:19:11;;;;;;;28.27;12.07;;;;;;;0.34;100.00;98144.03;5051770;28;20049;-72
2023/02/13 04:21:39;;;;;;;26.48;12.02;;;;;;;0.30;100.00;98156.19;5052742;28;20439;-72
2023/02/13 04:24:08;;;;;;;21.58;11.02;;;;;;;0.23;100.00;98145.50;5051637;28;20083;-73
2023/02/13 04:26:37;;;;;;;24.00;11.23;;;;;;;0.22;100.00;98149.22;5052311;28;20052;-71
2023/02/13 04:29:05;;;;;;;28.88;11.45;;;;;;;0.22;100.00;98147.34;5052029;28;20053;-72
2023/02/13 04:31:31;;;;;;;26.80;11.88;;;;;;;0.23;100.00;98151.69;5051825;28;20049;-71
2023/02/13 04:33:58;;;;;;;23.70;11.98;;;;;;;0.23;100.00;98150.84;5052136;28;20084;-72
2023/02/13 04:36:24;;;;;;;37.38;13.57;;;;;;;0.21;100.00;98153.75;5051917;28;20041;-72
2023/02/13 04:38:51;;;;;;;25.05;12.50;;;;;;;0.22;100.00;98151.91;5052087;28;20048;-72
2023/02/13 04:41:19;;;;;;;24.15;12.55;;;;;;;0.26;100.00;98153.09;5051700;28;20060;-73
2023/02/13 04:43:45;;;;;;;23.70;12.10;;;;;;;0.25;100.00;98154.97;5052070;28;20041;-73
2023/02/13 04:46:12;;;;;;;24.45;12.10;;;;;;;0.34;100.00;98157.44;5050540;28;20040;-72
2023/02/13 04:48:38;;;;;;;23.67;11.75;;;;;;;0.37;100.00;98147.13;5051703;28;20048;-72
2023/02/13 04:51:05;;;;;;;23.23;12.10;;;;;;;0.44;100.00;98152.47;5050809;28;20731;-72
2023/02/13 04:53:31;;;;;;;23.45;11.65;;;;;;;0.47;100.00;98149.34;5050964;28;20055;-73
2023/02/13 04:55:58;;;;;;;19.73;10.10;;;;;;;0.32;100.00;98152.28;5051831;28;20045;-73
2023/02/13 04:58:26;;;;;;;22.90;10.52;;;;;;;0.40;100.00;98148.56;5051390;28;20067;-74
2023/02/13 05:00:52;;;;;;;24.38;11.40;;;;;;;0.37;100.00;98151.69;5051779;28;20041;-73
2023/02/13 05:03:19;;;;;;;22.80;10.52;;;;;;;0.31;100.00;98153.31;5051097;28;20052;-74
2023/02/13 05:05:45;;;;;;;28.77;11.25;;;;;;;0.26;100.00;98145.06;5052117;28;20125;-74
2023/02/13 05:08:12;;;;;;;21.15;10.65;;;;;;;0.31;100.00;98147.94;5051444;28;20080;-72
2023/02/13 05:10:38;;;;;;;22.95;11.15;;;;;;;0.31;100.00;98160.53;5051650;28;20535;-71
2023/02/13 05:13:05;;;;;;;23.75;11.50;;;;;;;0.38;100.00;98156.00;5051340;28;20528;-72
2023/02/13 05:15:33;;;;;;;20.80;11.43;;;;;;;0.40;100.00;98156.59;5051085;28;20060;-72
2023/02/13 05:17:59;;;;;;;21.92;11.38;;;;;;;0.48;100.00;98164.44;5051289;28;20037;-71
2023/02/13 05:20:26;;;;;;;24.50;11.80;;;;;;;0.53;100.00;98167.31;5050918;28;20519;-73
2023/02/13 05:25:40;;;;;;;21.00;10.98;;;;;;;0.61;100.00;98164.38;5050967;28;20048;-71
2023/02/13 05:29:17;;;;;;;23.10;11.43;;;;;;;0.63;100.00;98167.69;5050841;28;20068;-73
2023/02/13 05:30:55;;;;;;;24.08;12.13;;;;;;;0.63;100.00;98167.69;5051111;28;20140;-72
2023/02/13 05:33:21;;;;;;;26.63;12.68;;;;;;;0.64;100.00;98171.22;5050251;28;20056;-72
2023/02/13 05:35:48;;;;;;;35.25;13.18;;;;;;;0.60;100.00;98172.66;5051249;28;20132;-72
2023/02/13 05:38:14;;;;;;;23.25;11.93;;;;;;;0.67;100.00;98168.91;5050595;28;20504;-71
2023/02/13 05:40:41;;;;;;;35.63;13.20;;;;;;;0.67;100.00;98162.72;5050838;28;20053;-71
2023/02/13 05:43:07;;;;;;;22.63;11.98;;;;;;;0.66;100.00;98164.59;5049477;28;20068;-74
2023/02/13 05:45:34;;;;;;;27.05;12.32;;;;;;;0.67;100.00;98166.22;5051129;28;20044;-73
2023/02/13 05:48:02;;;;;;;23.92;11.10;;;;;;;0.66;100.00;98169.94;5050738;28;20048;-72
2023/02/13 05:50:28;;;;;;;26.02;11.35;;;;;;;0.58;100.00;98164.00;5050235;28;20094;-73
2023/02/13 05:52:55;;;;;;;22.40;11.70;;;;;;;0.54;100.00;98168.94;5050724;28;20099;-73
2023/02/13 05:55:21;;;;;;;27.63;11.68;;;;;;;0.55;100.00;98167.91;5050019;28;20963;-73
2023/02/13 05:57:48;;;;;;;21.65;11.30;;;;;;;0.60;100.00;98160.06;5050658;28;20048;-73
2023/02/13 06:00:16;;;;;;;24.13;11.38;;;;;;;0.52;100.00;98162.97;5050268;28;20049;-73
2023/02/13 06:02:42;;;;;;;34.22;11.85;;;;;;;0.50;100.00;98162.34;5050406;28;20048;-73
2023/02/13 06:05:10;;;;;;;22.73;11.55;;;;;;;0.53;100.00;98172.66;5050064;28;20090;-73
2023/02/13 06:07:36;;;;;;;26.63;11.90;;;;;;;0.53;100.00;98172.66;5050556;28;20049;-74
2023/02/13 06:10:03;;;;;;;24.90;11.85;;;;;;;0.57;100.00;98163.16;5049623;28;20048;-74
2023/02/13 06:12:30;;;;;;;25.73;11.65;;;;;;;0.60;100.00;98173.47;5050423;28;20045;-74
2023/02/13 06:14:56;;;;;;;24.35;11.50;;;;;;;0.63;100.00;98178.44;5050436;28;20048;-73
2023/02/13 06:17:22;;;;;;;26.55;12.15;;;;;;;0.54;100.00;98185.03;5050077;28;20378;-73
2023/02/13 06:19:49;;;;;;;24.45;11.32;;;;;;;0.62;100.00;98184.78;5050060;28;20110;-73
2023/02/13 06:22:17;;;;;;;28.65;11.95;;;;;;;0.66;100.00;98194.06;5049607;28;20076;-73
2023/02/13 06:24:43;;;;;;;21.63;10.57;;;;;;;0.68;100.00;98192.03;5049758;28;20044;-73
2023/02/13 06:27:10;;;;;;;24.25;12.13;;;;;;;0.70;100.00;98195.31;5049710;28;20055;-74
2023/02/13 06:29:36;;;;;;;31.95;12.00;;;;;;;0.64;100.00;98201.53;5050244;28;20080;-73
2023/02/13 06:32:03;;;;;;;24.92;11.52;;;;;;;0.69;100.00;98203.56;5049631;28;20056;-73
2023/02/13 06:34:30;;;;;;;22.13;11.80;;;;;;;0.72;100.00;98203.97;5050125;28;20041;-73
2023/02/13 06:36:56;;;;;;;21.15;11.07;;;;;;;0.75;100.00;98203.56;5050101;28;20052;-74
2023/02/13 06:39:24;;;;;;;23.90;12.02;;;;;;;0.77;100.00;98206.00;5049683;28;20126;-73
2023/02/13 06:41:50;;;;;;;26.30;11.65;;;;;;;0.77;100.00;98206.84;5049797;28;20045;-73
2023/02/13 06:44:17;;;;;;;25.02;11.65;;;;;;;0.73;100.00;98204.78;5049366;28;20049;-73
2023/02/13 06:46:43;;;;;;;22.60;11.70;;;;;;;0.78;100.00;98200.47;5050006;28;20045;-73
2023/02/13 06:49:10;;;;;;;24.95;12.02;;;;;;;0.81;100.00;98201.06;5049246;28;20524;-74
2023/02/13 06:51:36;;;;;;;33.67;12.38;;;;;;;0.84;100.00;98206.03;5049959;28;20045;-74
2023/02/13 06:54:03;;;;;;;28.13;13.00;;;;;;;0.71;100.00;98210.34;5049433;28;20056;-73
2023/02/13 06:56:31;;;;;;;34.20;12.70;;;;;;;0.69;100.00;98211.63;5050643;28;20040;-73
2023/02/13 06:58:58;;;;;;;30.67;13.40;;;;;;;0.37;100.00;98222.16;5049970;28;20064;-73
2023/02/13 07:01:24;;;;;;;33.65;11.75;;;;;;;0.52;100.00;98219.25;5048668;28;20045;-73
2023/02/13 07:03:51;;;;;;;31.75;12.98;;;;;;;0.66;100.00;98223.56;5049344;28;20488;-73
2023/02/13 07:06:18;;;;;;;23.38;11.60;;;;;;;0.75;100.00;98219.63;5049037;28;20493;-74
2023/02/13 07:08:45;;;;;;;22.98;11.13;;;;;;;0.85;100.00;98223.75;5049993;28;20048;-76
2023/02/13 07:11:17;;;;;;;24.95;11.95;;;;;;;0.87;100.00;98227.03;5049475;28;20049;-74
2023/02/13 07:13:45;;;;;;;24.20;11.65;;;;;;;0.87;100.00;98235.09;5049896;28;20106;-74
2023/02/13 07:16:12;;;;;;;23.90;11.57;;;;;;;0.89;100.00;98235.69;5049663;28;20049;-74
2023/02/13 07:18:38;;;;;;;25.30;11.77;;;;;;;0.94;100.00;98233.19;5049570;28;20052;-75
2023/02/13 07:21:05;;;;;;;24.67;11.93;;;;;;;0.98;100.00;98237.13;5049410;28;20508;-75
2023/02/13 07:23:31;;;;;;;27.88;12.15;;;;;;;0.99;100.00;98238.75;5049618;28;20041;-74
2023/02/13 07:25:59;;;;;;;40.55;13.18;;;;;;;0.86;100.00;98245.00;5049522;28;20045;-72
2023/02/13 07:28:26;;;;;;;28.60;12.35;;;;;;;0.87;100.00;98256.53;5049343;28;20124;-74
2023/02/13 07:30:54;;;;;;;24.95;11.73;;;;;;;0.92;100.00;98259.41;5049539;28;20052;-74
2023/02/13 07:33:21;;;;;;;37.00;14.48;;;;;;;0.73;100.00;98258.41;5048983;28;20700;-74
2023/02/13 07:35:47;;;;;;;23.10;11.63;;;;;;;0.88;100.00;98268.91;5049825;28;20052;-75
2023/02/13 07:38:14;;;;;;;23.90;11.43;;;;;;;0.57;100.00;98265.03;5048215;28;20045;-75
2023/02/13 07:40:41;;;;;;;25.88;11.18;;;;;;;0.68;100.00;98268.94;5048011;28;20041;-75
2023/02/13 07:43:08;;;;;;;31.42;11.82;;;;;;;0.79;100.00;98268.31;5048487;28;20056;-75
2023/02/13 07:45:34;;;;;;;22.48;10.88;;;;;;;0.88;100.00;98271.59;5049173;28;20049;-74
2023/02/13 07:48:02;;;;;;;32.53;12.23;;;;;;;0.83;100.00;98263.34;5047468;28;20044;-74
2023/02/13 07:50:29;;;;;;;38.03;12.25;;;;;;;0.83;100.00;98274.06;5047889;28;20049;-74
2023/02/13 07:52:56;;;;;;;23.23;11.73;;;;;;;0.92;100.00;98267.47;5048490;28;20053;-74
2023/02/13 07:55:22;;;;;;;21.63;10.85;;;;;;;0.88;100.00;98271.59;5047373;28;20049;-75
2023/02/13 07:57:50;;;;;;;21.85;10.95;;;;;;;0.93;100.00;98272.63;5048750;28;20151;-75
2023/02/13 08:00:18;;;;;;;21.90;9.82;;;;;;;0.85;100.00;98266.66;5048707;28;20448;-74
2023/02/13 08:02:44;;;;;;;19.13;9.77;;;;;;;0.81;100.00;98276.97;5048731;28;20045;-72
2023/02/13 08:05:12;;;;;;;24.20;11.10;;;;;;;0.85;99.73;98266.66;5048553;28;20056;-74
2023/02/13 08:07:38;;;;;;;19.73;9.85;;;;;;;0.93;100.00;98269.09;5052281;28;20627;-74
2023/02/13 08:12:52;;;;;;;19.30;9.63;;;;;;;0.90;98.83;98277.59;5052424;28;20175;-74
2023/02/13 08:15:18;;;;;;;20.15;10.68;;;;;;;1.08;98.75;98271.56;5051685;28;20049;-75
2023/02/13 08:17:45;;;;;;;20.10;10.07;;;;;;;1.01;98.61;98272.41;5052453;28;20049;-75
2023/02/13 08:20:13;;;;;;;20.05;9.52;;;;;;;1.11;98.48;98271.16;5051296;28;20049;-76
2023/02/13 08:22:40;;;;;;;19.73;9.18;;;;;;;1.24;97.83;98277.28;5051795;28;20041;-75
2023/02/13 08:25:07;;;;;;;19.52;9.30;;;;;;;1.27;97.75;98276.06;5051025;28;20045;-75
2023/02/13 08:27:34;;;;;;;18.95;9.02;;;;;;;1.27;96.48;98274.19;5045678;28;20055;-74
2023/02/13 08:30:02;;;;;;;17.05;9.27;;;;;;;1.22;96.18;98275.88;5051701;28;20056;-76
2023/02/13 08:32:28;;;;;;;17.67;8.65;;;;;;;1.28;96.23;98283.88;5051800;28;20044;-74
2023/02/13 08:34:55;;;;;;;16.80;8.50;;;;;;;1.21;95.31;98283.09;5051615;28;20048;-74
2023/02/13 08:37:24;;;;;;;15.82;8.13;;;;;;;1.19;94.60;98279.78;5051146;28;20049;-74
2023/02/13 08:39:50;;;;;;;17.92;9.02;;;;;;;1.18;94.34;98278.13;5051839;28;20459;-74
2023/02/13 08:42:17;;;;;;;17.65;8.98;;;;;;;1.23;94.48;98285.56;5050922;28;20045;-75
2023/02/13 08:44:44;;;;;;;16.38;8.60;;;;;;;1.28;94.34;98278.53;5051224;28;20052;-75
2023/02/13 08:47:11;;;;;;;19.05;9.60;;;;;;;1.21;94.82;98271.53;5049562;28;20044;-75
2023/02/13 08:49:38;;;;;;;18.02;9.38;;;;;;;1.27;95.06;98270.69;5050113;28;20045;-77
2023/02/13 08:52:04;;;;;;;18.88;9.63;;;;;;;1.20;95.05;98270.72;5053309;28;20045;-75
2023/02/13 08:54:34;;;;;;;19.25;10.20;;;;;;;1.29;94.85;98280.16;5047685;28;20049;-75
2023/02/13 08:57:00;;;;;;;17.73;9.25;;;;;;;1.23;93.91;98274.81;5053318;28;20056;-75
2023/02/13 08:59:26;;;;;;;17.10;9.27;;;;;;;1.36;93.47;98276.63;5053320;28;20044;-76
2023/02/13 09:01:53;;;;;;;20.38;9.40;;;;;;;1.37;93.87;98286.34;5052936;28;20045;-74
2023/02/13 09:04:20;;;;;;;23.48;9.77;;;;;;;1.37;94.43;98276.44;5053094;28;20052;-75
2023/02/13 09:06:46;;;;;;;24.83;10.57;;;;;;;1.53;94.15;98275.13;5053539;28;20048;-75
2023/02/13 09:09:13;;;;;;;23.20;10.50;;;;;;;1.68;94.42;98283.75;5054062;28;20049;-75
2023/02/13 09:11:40;;;;;;;19.10;9.38;;;;;;;1.73;94.38;98286.63;5054855;28;20041;-75
2023/02/13 09:14:07;;;;;;;18.20;9.88;;;;;;;1.73;93.48;98291.97;5053988;28;20045;-76
2023/02/13 09:16:33;;;;;;;18.63;9.73;;;;;;;1.75;93.25;98292.59;5054173;28;20051;-73
2023/02/13 09:19:00;;;;;;;20.60;9.77;;;;;;;1.65;93.08;98292.22;5054107;28;20057;-75
2023/02/13 09:21:27;;;;;;;16.50;9.07;;;;;;;1.80;93.56;98287.38;5053846;28;20045;-74
2023/02/13 09:23:54;;;;;;;19.00;9.23;;;;;;;1.90;93.09;98286.94;5053015;28;20083;-73
2023/02/13 09:26:21;;;;;;;18.55;9.57;;;;;;;1.90;93.06;98291.50;5053947;28;20073;-73
2023/02/13 09:28:49;;;;;;;20.77;10.30;;;;;;;2.02;93.29;98284.38;5054588;28;20049;-74
2023/02/13 09:31:18;;;;;;;21.17;10.13;;;;;;;1.98;92.91;98286.66;5040653;28;20048;-75
2023/02/13 09:33:45;;;;;;;20.35;10.45;;;;;;;1.81;93.92;98289.03;5056232;28;20493;-72
2023/02/13 09:36:14;;;;;;;18.80;9.35;;;;;;;1.79;93.91;98296.50;5050561;28;20049;-72
2023/02/13 09:38:42;;;;;;;23.27;10.98;;;;;;;1.89;93.79;98295.22;5049540;28;20106;-72
2023/02/13 09:41:13;;;;;;;22.25;11.43;;;;;;;1.91;93.53;98293.94;5048765;28;20049;-72
2023/02/13 09:43:44;;;;;;;20.38;10.77;;;;;;;1.94;93.74;98292.72;5049552;28;20052;-72
2023/02/13 09:46:17;;;;;;;23.92;11.02;;;;;;;1.65;94.44;98297.59;5047871;28;20045;-75
2023/02/13 09:48:47;;;;;;;22.15;10.15;;;;;;;1.90;93.50;98295.00;5049004;28;20044;-75
2023/02/13 09:51:17;;;;;;;20.70;10.23;;;;;;;1.95;93.39;98297.03;5048635;28;20040;-73
2023/02/13 09:53:51;;;;;;;26.33;11.15;;;;;;;1.93;92.28;98291.03;5049911;28;20044;-74
2023/02/13 09:56:22;;;;;;;19.55;9.90;;;;;;;1.93;91.79;98296.41;5046436;28;20115;-75
2023/02/13 09:58:54;;;;;;;19.20;10.38;;;;;;;2.05;91.85;98300.09;5049346;28;20048;-75
2023/02/13 10:01:29;;;;;;;16.60;8.85;;;;;;;2.17;92.37;98297.53;5046373;28;20055;-74
2023/02/13 10:04:20;;;;;;;21.52;10.27;;;;;;;2.26;92.00;98297.06;5049639;28;20049;-75
2023/02/13 10:06:54;;;;;;;21.83;11.15;;;;;;;2.26;92.17;98307.81;5049922;28;20043;-75
2023/02/13 10:09:31;;;;;;;22.52;11.07;;;;;;;2.25;92.22;98298.09;5049833;28;20048;-73
2023/02/13 10:12:13;;;;;;;23.48;10.98;;;;;;;2.30;92.11;98298.28;5050387;28;20052;-75
2023/02/13 10:14:49;;;;;;;22.90;11.98;;;;;;;2.33;92.68;98297.00;5050160;28;20480;-75
2023/02/13 10:17:21;;;;;;;22.58;11.60;;;;;;;2.38;93.16;98299.84;5044709;28;20040;-74
2023/02/13 10:19:51;;;;;;;23.10;11.68;;;;;;;2.52;92.79;98295.22;5049778;28;20049;-74
2023/02/13 10:22:20;;;;;;;23.00;11.45;;;;;;;2.56;92.16;98291.06;5048752;28;20623;-75
2023/02/13 10:24:49;;;;;;;23.10;12.10;;;;;;;2.52;92.08;98287.16;5049762;28;20048;-72
2023/02/13 10:27:21;;;;;;;26.33;11.65;;;;;;;2.60;91.72;98294.94;5049556;28;20120;-75
2023/02/13 10:30:08;;;;;;;21.63;10.60;;;;;;;2.67;91.84;98293.03;5049592;28;20592;-72
2023/02/13 10:33:10;;;;;;;21.77;11.00;;;;;;;2.71;91.12;98288.84;5050148;28;20041;-75
2023/02/13 10:35:38;;;;;;;22.52;10.85;;;;;;;2.61;89.82;98288.53;5049601;28;20040;-75
2023/02/13 10:38:15;;;;;;;21.98;11.50;;;;;;;2.64;89.82;98287.25;5048988;28;20056;-75
2023/02/13 10:40:53;;;;;;;23.63;11.48;;;;;;;2.65;89.82;98280.81;5049354;28;20072;-74
2023/02/13 10:43:21;;;;;;;24.98;13.32;;;;;;;2.63;89.89;98275.69;5048678;28;20536;-74
2023/02/13 10:46:03;;;;;;;21.85;11.18;;;;;;;2.62;90.13;98279.41;5049772;28;20037;-73
2023/02/13 10:48:45;;;;;;;21.85;11.30;;;;;;;2.71;90.10;98275.38;5049655;28;20041;-73
2023/02/13 10:51:19;;;;;;;20.95;10.52;;;;;;;2.72;90.30;98278.91;5048793;28;20049;-74
2023/02/13 10:53:59;;;;;;;18.90;10.23;;;;;;;2.79;89.08;98275.13;5049613;28;20045;-74
2023/02/13 10:56:30;;;;;;;19.17;10.45;;;;;;;2.79;88.93;98275.13;5049165;28;20432;-74
2023/02/13 10:59:07;;;;;;;20.73;10.32;;;;;;;2.88;89.39;98268.41;5049584;28;20558;-75
2023/02/13 11:01:39;;;;;;;24.38;11.48;;;;;;;2.73;89.41;98269.81;5049582;28;20041;-75
2023/02/13 11:04:10;;;;;;;21.27;10.97;;;;;;;2.93;89.55;98266.94;5048403;28;20075;-75
2023/02/13 11:06:38;;;;;;;22.85;11.48;;;;;;;3.00;90.00;98265.81;5049183;28;20500;-73
2023/02/13 11:09:07;;;;;;;20.38;10.80;;;;;;;2.96;90.13;98263.78;5048287;28;20052;-76
2023/02/13 11:11:35;;;;;;;18.40;10.70;;;;;;;2.94;89.86;98255.94;5048925;28;20493;-76
2023/02/13 11:14:16;;;;;;;19.58;11.38;;;;;;;2.91;90.33;98250.16;5048842;28;20053;-75
2023/02/13 11:16:50;;;;;;;22.58;11.25;;;;;;;3.04;89.88;98250.03;5049819;28;20055;-75
2023/02/13 11:19:21;;;;;;;18.05;10.43;;;;;;;3.10;89.21;98243.75;5048886;28;20131;-75
2023/02/13 11:21:54;;;;;;;20.08;10.90;;;;;;;3.21;88.38;98251.09;5049722;28;20629;-75
2023/02/13 11:24:23;;;;;;;19.25;10.57;;;;;;;3.29;88.23;98249.94;5048449;28;20485;-74
2023/02/13 11:26:57;;;;;;;25.48;11.30;;;;;;;3.31;88.64;98246.00;5049341;28;20103;-76
2023/02/13 11:29:27;;;;;;;20.50;11.57;;;;;;;3.38;88.52;98249.44;5048758;28;20041;-75
2023/02/13 11:32:18;;;;;;;20.05;10.35;;;;;;;3.56;87.64;98247.78;5048602;28;20060;-75
2023/02/13 11:34:49;;;;;;;19.05;10.60;;;;;;;3.59;87.00;98241.94;5039941;28;20041;-75
2023/02/13 11:37:23;;;;;;;22.88;11.48;;;;;;;3.65;86.77;98246.41;5049096;28;20133;-75
2023/02/13 11:39:52;;;;;;;17.58;9.80;;;;;;;3.77;86.38;98250.00;5049394;28;20053;-75
2023/02/13 11:42:25;;;;;;;18.15;9.95;;;;;;;3.84;86.16;98249.91;5051278;28;20053;-75
2023/02/13 11:44:54;;;;;;;18.58;10.30;;;;;;;3.96;85.16;98245.38;5052841;28;20056;-75
2023/02/13 11:47:37;;;;;;;20.77;10.85;;;;;;;3.93;85.04;98248.53;5052787;28;20048;-75
2023/02/13 11:50:07;;;;;;;18.20;10.82;;;;;;;3.91;84.83;98251.47;5052781;28;20521;-75
2023/02/13 11:52:35;;;;;;;16.65;9.75;;;;;;;3.95;83.92;98249.13;5053026;28;20511;-75
2023/02/13 11:55:04;;;;;;;22.92;10.65;;;;;;;3.90;83.54;98247.09;5051812;28;20144;-77
2023/02/13 11:57:34;;;;;;;16.48;10.20;;;;;;;3.95;83.59;98254.50;5051959;28;20408;-75
2023/02/13 12:00:22;;;;;;;16.92;9.65;;;;;;;3.92;83.25;98250.41;5051894;28;20523;-74
2023/02/13 12:02:49;;;;;;;15.77;9.60;;;;;;;4.06;83.47;98242.94;5052383;28;20095;-74
2023/02/13 12:05:19;;;;;;;18.50;10.82;;;;;;;4.15;84.13;98248.84;5052274;28;20072;-74
2023/02/13 12:07:47;;;;;;;19.98;10.27;;;;;;;4.10;84.87;98248.69;5052772;28;20568;-74
2023/02/13 12:10:22;;;;;;;16.80;9.90;;;;;;;4.21;84.96;98239.81;5052544;28;20057;-74
2023/02/13 12:12:54;;;;;;;20.58;11.35;;;;;;;4.19;84.59;98241.94;5052402;28;20040;-74
2023/02/13 12:15:24;;;;;;;20.57;10.70;;;;;;;4.24;84.03;98239.38;5052500;28;20390;-74
2023/02/13 12:18:02;;;;;;;17.33;10.35;;;;;;;4.26;84.00;98237.25;5052242;28;20315;-74